Stations météo

réclame
Mon MeteoGroup
Villardeciervos, Espagne (8125): Température de l'air & dewpoint: 11.01.2020 23:00:00 - 17.01.2020 23:00:00 (CET)Villardeciervos, Espagne (8125): Vitesse du vent & gusts: 11.01.2020 23:00:00 - 17.01.2020 23:00:00 (CET)Villardeciervos, Espagne (8125): Direction du vent: 11.01.2020 23:00:00 - 17.01.2020 23:00:00 (CET)Villardeciervos, Espagne (8125): visibility: 11.01.2020 23:00:00 - 17.01.2020 23:00:00 (CET)Villardeciervos, Espagne (8125): Ensoleillement: 11.01.2020 23:00:00 - 17.01.2020 23:00:00 (CET)Villardeciervos, Espagne (8125): Quantités de précipitations: 11.01.2020 23:00:00 - 17.01.2020 23:00:00 (CET)
Date & Time tt [°C] td [°C] ff [km/h] ff [knt] fx [km/h] fx [knt] dd vv [km] sd [min] rr [mm]
17.01.2020 23:00:00 3,7 0,4 2 1 10 5 N 20 0 0,0
17.01.2020 22:00:00 4,8 0,0 7 4 12 7 WSW 20 0 0,0
17.01.2020 21:00:00 4,9 0,2 4 2 18 10 S 20 0 0,0
17.01.2020 20:00:00 5,3 0,0 11 6 19 11 SSW 20 0 0,0
17.01.2020 19:00:00 5,0 -0,5 8 5 21 11 SSW 20 0 -
17.01.2020 18:00:00 5,7 -0,5 8 4 26 14 SSW 20 0 0,0
17.01.2020 17:00:00 6,6 -0,3 15 8 31 17 WSW 20 22 0,0
17.01.2020 16:00:00 7,3 -0,7 13 7 29 16 WSW 20 38 0,0
17.01.2020 15:00:00 7,8 -0,7 11 6 29 16 WSW 6 60 0,0
17.01.2020 14:00:00 7,1 -0,5 9 5 35 19 WSW 20 30 0,0
17.01.2020 13:00:00 6,7 0,2 13 7 36 19 WSW 20 60 -
17.01.2020 12:00:00 6,6 1,5 17 9 33 18 WSW 20 60 0,0
17.01.2020 11:00:00 6,0 1,9 16 9 37 20 WSW 20 60 0,0
17.01.2020 10:00:00 4,7 1,3 14 8 34 18 WSW 20 47 0,0
17.01.2020 09:00:00 3,8 1,3 15 8 29 16 WSW 20 0 0,0
17.01.2020 08:00:00 4,4 2,1 17 9 31 17 WSW 20 0 0,0
17.01.2020 07:00:00 4,6 2,1 13 7 36 19 WSW 20 0 -
17.01.2020 06:00:00 4,9 2,5 16 9 39 21 W - 0 0,0
17.01.2020 05:00:00 5,5 3,6 14 8 29 16 WSW 20 0 0,0
17.01.2020 04:00:00 5,3 3,2 9 5 36 19 W 20 0 1,2
17.01.2020 03:00:00 6,3 4,5 18 10 61 33 WSW 8 0 0,2
17.01.2020 02:00:00 6,3 4,1 23 12 42 23 SW 12 0 0,8
17.01.2020 01:00:00 6,5 4,3 11 6 35 19 SW 20 0 -
17.01.2020 00:00:00 6,5 4,5 16 9 40 21 SW 20 0 0,0
16.01.2020 23:00:00 6,7 4,1 16 9 45 24 SW 20 0 0,0
16.01.2020 22:00:00 7,1 4,8 18 10 45 25 SW 20 0 0,0
16.01.2020 21:00:00 7,3 5,3 22 12 50 27 SW 20 0 1,0
16.01.2020 20:00:00 7,3 4,8 23 12 55 30 S 5 0 1,4
16.01.2020 19:00:00 7,5 4,6 17 9 50 27 S 14 0 -
16.01.2020 18:00:00 8,8 3,8 25 14 53 29 S 13 0 0,2
16.01.2020 17:00:00 9,4 3,6 23 12 53 28 S 20 0 0,0
16.01.2020 16:00:00 9,8 3,6 22 12 63 34 S 20 0 0,0
16.01.2020 15:00:00 10,1 3,8 26 14 59 32 S 20 27 0,0
16.01.2020 14:00:00 10,4 4,3 23 12 51 28 SSW 20 21 0,0
16.01.2020 13:00:00 10,4 4,1 29 16 58 31 SSW 20 24 -
16.01.2020 12:00:00 9,8 5,1 25 13 65 35 S 20 19 0,0
16.01.2020 11:00:00 9,2 5,9 24 13 55 30 S 20 4 0,0
16.01.2020 10:00:00 8,7 6,2 23 12 54 29 S 20 0 0,0
16.01.2020 09:00:00 8,9 6,5 23 12 46 25 SSW 20 0 0,0
16.01.2020 08:00:00 8,9 6,4 19 11 42 23 S 20 0 0,0
16.01.2020 07:00:00 8,9 6,7 17 9 50 27 SSW 20 0 -
16.01.2020 06:00:00 8,9 6,5 25 13 53 29 SSW 20 0 0,0
16.01.2020 05:00:00 8,8 6,5 21 11 54 29 SSW 20 0 0,0
16.01.2020 04:00:00 8,7 7,0 15 8 41 22 S 20 0 0,2
16.01.2020 03:00:00 8,8 7,0 19 10 44 24 S 20 0 0,0
16.01.2020 02:00:00 8,8 7,1 18 10 42 23 S 20 0 0,0
16.01.2020 01:00:00 8,8 7,0 18 10 41 22 S 20 0 -
16.01.2020 00:00:00 8,9 7,1 18 10 39 21 S 20 0 0,0
15.01.2020 23:00:00 8,9 7,1 19 10 41 22 S 20 0 0,0
15.01.2020 22:00:00 8,8 7,3 15 8 36 19 S 20 0 0,0
15.01.2020 21:00:00 8,9 7,1 13 7 31 17 S 20 0 0,6
15.01.2020 20:00:00 8,9 7,0 6 4 16 9 SSW 7 0 0,0
15.01.2020 19:00:00 8,5 5,9 7 4 16 8 SW 20 0 -
15.01.2020 18:00:00 9,9 6,1 8 4 28 15 WSW 20 28 0,0
15.01.2020 17:00:00 10,5 5,6 13 7 31 17 SW 20 29 0,0
15.01.2020 16:00:00 9,7 6,1 15 8 30 16 SW 20 2 0,0
15.01.2020 15:00:00 9,0 5,9 13 7 28 15 SSW 20 0 0,0
15.01.2020 14:00:00 8,3 5,8 10 5 26 14 SSW 20 0 0,0
15.01.2020 13:00:00 8,0 5,1 11 6 37 20 SW 20 0 -
15.01.2020 12:00:00 7,5 5,0 20 11 39 21 SW 20 10 0,0
15.01.2020 11:00:00 6,3 3,9 10 6 46 25 WSW 20 0 0,2
15.01.2020 10:00:00 5,1 2,9 17 9 45 25 SSW 20 0 3,0
15.01.2020 09:00:00 6,8 4,5 25 14 70 38 SW 19 0 1,4
15.01.2020 08:00:00 6,9 4,8 23 12 53 28 S 20 0 0,0
15.01.2020 07:00:00 6,9 5,0 25 13 51 27 SSW 20 0 -
15.01.2020 06:00:00 6,8 5,1 23 13 52 28 S 4,7 0 0,4
15.01.2020 05:00:00 6,9 5,0 26 14 61 33 SSW 8 0 0,4
15.01.2020 04:00:00 6,8 5,0 26 14 62 33 SSW 7 0 0,4
15.01.2020 03:00:00 6,8 5,0 23 12 62 33 S 9 0 0,4
15.01.2020 02:00:00 6,4 4,6 24 13 58 31 S 20 0 0,2
15.01.2020 01:00:00 6,1 4,5 24 13 50 27 S 16 0 -
15.01.2020 00:00:00 5,7 4,1 21 11 43 23 SSW 19 0 0,0
14.01.2020 23:00:00 5,3 3,8 21 11 53 29 S 14 0 0,0
14.01.2020 22:00:00 5,4 3,8 22 12 50 27 SSW 20 0 0,0
14.01.2020 21:00:00 5,3 3,6 21 11 48 26 S 20 0 0,2
14.01.2020 20:00:00 5,8 3,2 18 10 40 22 S 16 0 0,0
14.01.2020 19:00:00 5,8 2,9 11 6 27 15 SSW 20 0 -
14.01.2020 18:00:00 6,4 2,9 18 10 39 21 S 20 0 0,0
14.01.2020 17:00:00 7,2 2,9 14 7 34 18 SSW 20 0 0,0
14.01.2020 16:00:00 7,8 3,0 12 7 33 18 SW 20 22 0,0
14.01.2020 15:00:00 8,0 2,9 18 10 35 19 SW 20 22 0,0
14.01.2020 14:00:00 6,6 3,4 11 6 29 16 SW 20 7 0,0
14.01.2020 13:00:00 5,3 2,5 13 7 30 16 SW 20 0 -
14.01.2020 12:00:00 - - - - - - - - - -
14.01.2020 11:00:00 4,4 1,7 15 8 26 14 SSW 20 0 0,0
14.01.2020 10:00:00 3,7 1,3 15 8 22 12 SW 20 0 0,0
14.01.2020 09:00:00 3,5 1,1 13 7 23 12 SSW 20 0 0,0
14.01.2020 08:00:00 3,2 0,9 12 6 21 12 SW 20 0 0,0
14.01.2020 07:00:00 2,8 0,9 8 4 16 9 WSW 20 0 -
14.01.2020 06:00:00 3,2 0,9 11 6 26 14 SW 20 0 0,0
14.01.2020 05:00:00 3,0 0,9 12 6 26 14 WSW 20 0 0,0
14.01.2020 04:00:00 2,9 1,1 9 5 31 17 WSW 18 0 0,0
14.01.2020 03:00:00 3,0 1,3 12 7 29 16 WSW 20 0 0,0
14.01.2020 02:00:00 3,0 1,3 14 8 26 14 WSW 20 0 0,0
14.01.2020 01:00:00 2,9 1,3 7 4 21 11 WSW 6 0 -
14.01.2020 00:00:00 2,8 1,1 11 6 30 16 WSW 4,0 0 0,0
13.01.2020 23:00:00 3,2 0,6 16 9 31 17 SW 14 0 0,0
13.01.2020 22:00:00 2,9 0,0 5 3 21 12 WSW 20 0 0,0
13.01.2020 21:00:00 2,4 -0,3 12 7 31 17 WSW 20 0 0,0
13.01.2020 20:00:00 1,4 -1,0 6 4 16 9 W 20 0 0,0
13.01.2020 19:00:00 2,0 -1,0 7 4 24 13 W 20 0 -
13.01.2020 18:00:00 3,4 -0,7 17 9 41 22 SW 20 40 0,0
13.01.2020 17:00:00 5,0 -0,5 22 12 46 25 SW 20 60 0,0
13.01.2020 16:00:00 6,0 -1,4 21 11 37 20 SW 20 60 0,0
13.01.2020 15:00:00 5,1 -0,5 19 10 32 17 SW 20 60 0,0
13.01.2020 14:00:00 4,6 0,9 13 7 29 16 WSW 20 56 0,0
13.01.2020 13:00:00 0,4 -0,5 3 2 8 4 E 14 52 -
13.01.2020 12:00:00 -2,0 -2,7 1 1 8 5 E 13 21 0,0
13.01.2020 11:00:00 -3,5 -4,5 3 2 11 6 N 5 0 0,0
13.01.2020 10:00:00 -4,9 -5,7 1 1 5 3 SSE 0,9 0 0,0
13.01.2020 09:00:00 -5,3 -6,4 2 1 8 4 NNE 1,3 0 0,0
13.01.2020 08:00:00 -5,8 -6,7 4 2 9 5 SE 14 0 0,0
13.01.2020 07:00:00 -5,4 -6,4 1 1 13 7 ENE 3,7 0 -
13.01.2020 06:00:00 -5,5 -6,4 4 2 9 5 SSE 15 0 0,0
13.01.2020 05:00:00 -4,9 -5,7 6 3 10 5 S 0,7 0 0,0
13.01.2020 04:00:00 -5,1 -6,0 2 1 8 4 S 0,3 0 0,0
13.01.2020 03:00:00 -4,6 -5,4 0 0 8 4 N 0,2 0 0,0
13.01.2020 02:00:00 -4,2 -5,1 1 1 8 5 NE 0,2 0 0,0
13.01.2020 01:00:00 -3,9 -4,8 5 3 8 4 S 0,3 0 -
13.01.2020 00:00:00 -3,3 -4,2 2 1 6 3 S 0,3 0 0,0
12.01.2020 23:00:00 -3,0 -3,9 3 2 6 3 SSW 0,2 0 0,0
12.01.2020 22:00:00 -2,7 -3,6 2 1 9 5 WNW 0,6 0 0,0
12.01.2020 21:00:00 -1,9 -2,7 4 2 9 5 NNW 0,6 0 0,0
12.01.2020 20:00:00 -1,6 -2,5 1 1 5 3 SE 0,2 0 0,0
12.01.2020 19:00:00 -1,0 -2,0 3 2 6 3 S 0,2 0 -
12.01.2020 18:00:00 -0,4 -1,4 3 2 9 5 ENE 0,2 0 0,0
12.01.2020 17:00:00 0,5 -0,7 4 2 10 6 NE 0,2 0 0,0
12.01.2020 16:00:00 0,6 -0,7 4 2 9 5 NE 3,6 0 0,0
12.01.2020 15:00:00 0,4 -1,0 2 1 11 6 ENE 1,3 0 0,0
12.01.2020 14:00:00 -0,3 -1,4 3 2 7 4 E 1,4 0 0,0
12.01.2020 13:00:00 -1,3 -2,2 3 2 7 4 NE 0,4 0 -
12.01.2020 12:00:00 -2,5 -3,3 2 1 7 4 N 0,4 0 0,0
12.01.2020 11:00:00 -3,3 -4,2 2 1 8 4 NNE 0,7 0 0,0
12.01.2020 10:00:00 -4,2 -5,1 2 1 4 2 ENE 0,8 0 0,0
12.01.2020 09:00:00 -4,5 -5,4 3 1 9 5 N 0,3 0 0,0
12.01.2020 08:00:00 -4,3 -5,1 4 2 6 4 SE 0,2 0 0,0
12.01.2020 07:00:00 -5,1 -6,0 4 2 9 5 ESE 0,1 0 -
12.01.2020 06:00:00 -5,1 -6,4 4 2 9 5 N 20 0 0,0
12.01.2020 05:00:00 -4,9 -6,4 5 3 7 4 S 20 0 0,0
12.01.2020 04:00:00 -4,0 -5,4 1 1 3 2 SW 20 0 0,0
12.01.2020 03:00:00 -3,8 -5,1 3 2 5 3 SSE 20 0 0,0
12.01.2020 02:00:00 -3,4 -5,1 2 1 5 3 S 20 0 0,0
12.01.2020 01:00:00 -2,7 -4,2 3 1 5 3 SSE 20 0 -
12.01.2020 00:00:00 -1,9 -3,9 1 1 9 5 S 20 0 0,0
11.01.2020 23:00:00 -0,9 -2,2 6 3 8 5 S 20 0 0,0

tt = Température de l'air
td = dewpoint
ff = Vitesse du vent
fx = gusts
dd = Direction du vent
vv = visibility
sd = Ensoleillement
rr = Quantités de précipitations

stations d'obs. à proximité